createdAt,value
2023-04-21T00:01:15.084Z,29.17
2023-04-21T00:03:42.987Z,26.48
2023-04-21T00:06:10.898Z,25.83
2023-04-21T00:08:40.390Z,28.05
2023-04-21T00:11:08.259Z,26.55
2023-04-21T00:13:36.117Z,27.27
2023-04-21T00:16:05.670Z,25.65
2023-04-21T00:18:33.423Z,30.83
2023-04-21T00:21:01.083Z,25.75
2023-04-21T00:23:28.734Z,23.30
2023-04-21T00:25:56.383Z,23.73
2023-04-21T00:28:24.851Z,21.08
2023-04-21T00:30:54.378Z,23.35
2023-04-21T00:33:23.428Z,23.00
2023-04-21T00:35:51.152Z,22.17
2023-04-21T00:38:18.805Z,25.13
2023-04-21T00:40:46.496Z,21.40
2023-04-21T00:43:14.158Z,24.65
2023-04-21T00:45:41.794Z,21.17
2023-04-21T00:48:09.462Z,19.30
2023-04-21T00:50:38.494Z,22.73
2023-04-21T00:53:06.285Z,20.95
2023-04-21T00:55:33.907Z,19.30
2023-04-21T00:58:02.043Z,20.27
2023-04-21T01:00:30.106Z,23.20
2023-04-21T01:02:57.999Z,26.20
2023-04-21T01:05:25.992Z,23.00
2023-04-21T01:07:55.081Z,23.20
2023-04-21T01:10:22.743Z,23.42
2023-04-21T01:12:50.451Z,22.63
2023-04-21T01:15:18.634Z,24.70
2023-04-21T01:17:46.306Z,26.45
2023-04-21T01:20:15.215Z,24.17
2023-04-21T01:22:45.382Z,24.05
2023-04-21T01:25:13.100Z,24.67
2023-04-21T01:27:40.790Z,22.45
2023-04-21T01:30:10.145Z,25.55
2023-04-21T01:32:37.966Z,22.55
2023-04-21T01:35:06.619Z,22.55
2023-04-21T01:37:34.932Z,23.08
2023-04-21T01:40:06.016Z,27.15
2023-04-21T01:42:35.662Z,22.95
2023-04-21T01:45:03.704Z,30.05
2023-04-21T01:47:31.550Z,27.85
2023-04-21T01:49:59.257Z,26.23
2023-04-21T01:52:26.920Z,28.02
2023-04-21T01:54:54.558Z,26.30
2023-04-21T01:57:23.670Z,28.88
2023-04-21T01:59:51.507Z,24.73
2023-04-21T02:02:19.342Z,25.25
2023-04-21T02:04:47.145Z,25.63
2023-04-21T02:07:14.909Z,26.63
2023-04-21T02:09:42.704Z,22.65
2023-04-21T02:12:11.289Z,24.63
2023-04-21T02:14:40.421Z,19.75
2023-04-21T02:17:08.214Z,22.30
2023-04-21T02:19:36.019Z,19.83
2023-04-21T02:22:04.100Z,19.63
2023-04-21T02:24:31.782Z,20.15
2023-04-21T02:26:59.452Z,22.45
2023-04-21T02:29:27.139Z,21.80
2023-04-21T02:32:05.333Z,26.50
2023-04-21T02:34:38.275Z,24.02
2023-04-21T02:37:06.478Z,23.92
2023-04-21T02:39:34.170Z,24.23
2023-04-21T02:42:02.112Z,21.92
2023-04-21T02:44:29.784Z,23.45
2023-04-21T02:46:58.878Z,21.92
2023-04-21T02:49:26.567Z,26.48
2023-04-21T02:51:55.068Z,23.88
2023-04-21T02:54:22.740Z,23.05
2023-04-21T02:56:50.367Z,23.77
2023-04-21T02:59:18.240Z,25.67
2023-04-21T03:01:47.891Z,21.35
2023-04-21T03:04:17.310Z,24.13
2023-04-21T03:06:45.340Z,23.48
2023-04-21T03:09:12.955Z,21.98
2023-04-21T03:11:40.584Z,23.60
2023-04-21T03:14:08.213Z,25.13
2023-04-21T03:16:35.925Z,24.75
2023-04-21T03:19:03.602Z,29.95
2023-04-21T03:21:32.753Z,26.10
2023-04-21T03:24:00.478Z,23.40
2023-04-21T03:26:28.118Z,23.63
2023-04-21T03:28:55.784Z,20.58
2023-04-21T03:31:23.483Z,26.52
2023-04-21T03:33:51.160Z,22.05
2023-04-21T03:36:18.845Z,24.08
2023-04-21T03:38:47.831Z,24.95
2023-04-21T03:41:15.502Z,24.75
2023-04-21T03:43:43.150Z,25.92
2023-04-21T03:46:18.827Z,23.98
2023-04-21T03:48:46.796Z,23.65
2023-04-21T03:51:14.735Z,26.33
2023-04-21T03:53:42.543Z,22.73
2023-04-21T03:56:11.639Z,24.30
2023-04-21T03:58:39.305Z,25.17
2023-04-21T04:01:07.673Z,26.45
2023-04-21T04:03:35.481Z,23.48
2023-04-21T04:06:04.235Z,24.35
2023-04-21T04:08:32.077Z,22.52
2023-04-21T04:10:59.811Z,23.70
2023-04-21T04:13:29.475Z,23.33
2023-04-21T04:15:57.896Z,26.15
2023-04-21T04:18:25.671Z,21.63
2023-04-21T04:20:53.354Z,21.90
2023-04-21T04:23:21.838Z,23.60
2023-04-21T04:25:49.540Z,21.52
2023-04-21T04:28:17.177Z,26.83
2023-04-21T04:33:43.362Z,26.52
2023-04-21T04:36:11.977Z,23.90
2023-04-21T04:38:40.274Z,28.88
2023-04-21T04:41:09.108Z,23.48
2023-04-21T04:43:39.025Z,23.58
2023-04-21T04:46:09.083Z,24.27
2023-04-21T04:48:36.860Z,25.73
2023-04-21T04:51:04.664Z,24.33
2023-04-21T04:53:32.353Z,24.33
2023-04-21T04:56:00.555Z,29.70
2023-04-21T04:58:28.204Z,24.80
2023-04-21T05:00:55.912Z,24.05
2023-04-21T05:03:25.160Z,26.38
2023-04-21T05:05:54.222Z,28.77
2023-04-21T05:08:21.884Z,29.95
2023-04-21T05:10:49.584Z,28.23
2023-04-21T05:13:18.280Z,29.13
2023-04-21T05:15:45.948Z,29.45
2023-04-21T05:18:13.617Z,26.67
2023-04-21T05:20:43.622Z,31.52
2023-04-21T05:23:11.276Z,32.97
2023-04-21T05:25:39.541Z,40.65
2023-04-21T05:28:07.223Z,34.20
2023-04-21T05:30:34.917Z,30.85
2023-04-21T05:33:02.645Z,31.73
2023-04-21T05:35:31.556Z,36.88
2023-04-21T05:38:00.702Z,31.63
2023-04-21T05:40:28.485Z,30.98
2023-04-21T05:42:56.106Z,29.95
2023-04-21T05:45:23.830Z,29.60
2023-04-21T05:47:51.564Z,32.30
2023-04-21T05:50:19.347Z,30.77
2023-04-21T05:52:47.038Z,31.15
2023-04-21T05:55:16.117Z,35.97
2023-04-21T05:57:43.773Z,31.63
2023-04-21T06:00:12.751Z,31.48
2023-04-21T06:02:40.735Z,32.70
2023-04-21T06:05:09.071Z,32.40
2023-04-21T06:07:37.995Z,30.70
2023-04-21T06:10:06.454Z,34.00
2023-04-21T06:12:35.726Z,33.70
2023-04-21T06:15:03.485Z,33.78
2023-04-21T06:17:31.168Z,34.13
2023-04-21T06:19:59.118Z,30.05
2023-04-21T06:22:26.921Z,31.05
2023-04-21T06:24:54.577Z,33.00
2023-04-21T06:27:22.268Z,34.15
2023-04-21T06:29:55.827Z,33.17
2023-04-21T06:32:23.556Z,28.88
2023-04-21T06:34:51.234Z,32.33
2023-04-21T06:37:19.112Z,30.17
2023-04-21T06:39:46.784Z,29.83
2023-04-21T06:42:14.454Z,31.95
2023-04-21T06:44:42.133Z,31.98
2023-04-21T06:47:11.188Z,34.90
2023-04-21T06:49:38.883Z,29.52
2023-04-21T06:52:06.560Z,29.17
2023-04-21T06:54:34.177Z,30.27
2023-04-21T06:57:02.157Z,31.02
2023-04-21T06:59:29.824Z,31.02
2023-04-21T07:01:57.496Z,30.73
2023-04-21T07:04:30.143Z,30.80
2023-04-21T07:06:58.526Z,27.05
2023-04-21T07:09:28.497Z,27.65
2023-04-21T07:11:56.181Z,26.23
2023-04-21T07:14:23.825Z,26.88
2023-04-21T07:16:51.503Z,27.85
2023-04-21T07:19:19.397Z,20.17
2023-04-21T07:21:48.607Z,22.88
2023-04-21T07:24:16.219Z,26.08
2023-04-21T07:26:43.893Z,25.95
2023-04-21T07:29:11.569Z,21.83
2023-04-21T07:31:39.264Z,20.55
2023-04-21T07:34:06.985Z,20.75
2023-04-21T07:36:34.716Z,19.33
2023-04-21T07:39:04.112Z,20.92
2023-04-21T07:41:31.827Z,18.55
2023-04-21T07:43:59.467Z,24.65
2023-04-21T07:46:30.414Z,20.23
2023-04-21T07:48:58.530Z,19.95
2023-04-21T07:51:27.512Z,20.50
2023-04-21T07:53:55.748Z,20.85
2023-04-21T07:56:24.760Z,20.10
2023-04-21T07:58:52.398Z,21.67
2023-04-21T08:01:20.563Z,23.38
2023-04-21T08:03:48.415Z,24.63
2023-04-21T08:06:16.737Z,21.92
2023-04-21T08:08:44.767Z,18.38
2023-04-21T08:11:12.443Z,18.65
2023-04-21T08:13:41.444Z,20.63
2023-04-21T08:16:09.123Z,18.55
2023-04-21T08:18:36.990Z,18.65
2023-04-21T08:21:04.909Z,19.00
2023-04-21T08:23:32.717Z,20.63
2023-04-21T08:26:00.468Z,21.13
2023-04-21T08:28:28.239Z,19.92
2023-04-21T08:30:57.255Z,19.27
2023-04-21T08:33:24.970Z,21.10
2023-04-21T08:36:02.874Z,20.20
2023-04-21T08:38:33.402Z,21.75
2023-04-21T08:41:01.186Z,18.98
2023-04-21T08:43:29.910Z,21.27
2023-04-21T08:45:59.122Z,18.75
2023-04-21T08:48:27.436Z,18.20
2023-04-21T08:50:55.092Z,19.20
2023-04-21T08:53:22.800Z,17.30
2023-04-21T08:56:07.389Z,17.63
2023-04-21T08:58:38.212Z,16.90
2023-04-21T09:01:07.422Z,14.73
2023-04-21T09:03:35.345Z,15.20
2023-04-21T09:06:05.513Z,15.20
2023-04-21T09:08:35.496Z,15.90
2023-04-21T09:11:03.180Z,15.07
2023-04-21T09:13:31.756Z,15.45
2023-04-21T09:15:59.852Z,15.48
2023-04-21T09:18:35.210Z,14.38
2023-04-21T09:21:10.700Z,14.32
2023-04-21T09:23:42.966Z,13.52
2023-04-21T09:26:10.846Z,13.63
2023-04-21T09:28:38.577Z,13.43
2023-04-21T09:31:06.477Z,14.27
2023-04-21T09:33:45.774Z,14.27
2023-04-21T09:36:22.761Z,14.07
2023-04-21T09:41:32.235Z,14.48
2023-04-21T09:44:01.443Z,14.55
2023-04-21T09:46:30.367Z,14.75
2023-04-21T09:49:01.590Z,14.52
2023-04-21T09:51:49.345Z,14.93
2023-04-21T09:54:29.118Z,13.40
2023-04-21T09:57:00.136Z,14.30
2023-04-21T09:59:31.183Z,14.73
2023-04-21T10:01:59.522Z,15.77
2023-04-21T10:04:30.464Z,15.90
2023-04-21T10:06:59.850Z,14.73
2023-04-21T10:09:32.579Z,15.27
2023-04-21T10:12:02.744Z,14.85
2023-04-21T10:14:30.461Z,14.40
2023-04-21T10:16:58.983Z,14.35
2023-04-21T10:19:28.853Z,14.98
2023-04-21T10:21:57.476Z,14.45
2023-04-21T10:24:25.264Z,14.85
2023-04-21T10:26:55.088Z,15.95
2023-04-21T10:29:40.169Z,17.40
2023-04-21T10:32:32.639Z,17.67
2023-04-21T10:35:01.816Z,15.18
2023-04-21T10:37:32.415Z,15.70
2023-04-21T10:40:00.261Z,14.40
2023-04-21T10:42:30.284Z,15.02
2023-04-21T10:45:09.547Z,14.25
2023-04-21T10:47:42.860Z,15.55
2023-04-21T10:50:17.814Z,14.38
2023-04-21T10:52:46.872Z,15.85
2023-04-21T10:55:16.137Z,16.10
2023-04-21T10:57:46.196Z,15.18
2023-04-21T11:00:17.953Z,16.88
2023-04-21T11:02:45.984Z,15.85
2023-04-21T11:05:15.655Z,14.85
2023-04-21T11:07:43.316Z,15.68
2023-04-21T11:10:12.172Z,14.77
2023-04-21T11:12:41.064Z,14.93
2023-04-21T11:15:10.603Z,14.02
2023-04-21T11:17:39.732Z,12.95
2023-04-21T11:20:09.011Z,13.02
2023-04-21T11:22:39.042Z,13.00
2023-04-21T11:25:08.027Z,12.75
2023-04-21T11:27:35.897Z,12.93
2023-04-21T11:30:05.848Z,13.05
2023-04-21T11:32:34.661Z,14.50
2023-04-21T11:35:03.399Z,13.57
2023-04-21T11:37:31.867Z,14.18
2023-04-21T11:40:01.879Z,13.13
2023-04-21T11:42:29.990Z,13.70
2023-04-21T11:44:58.064Z,13.98
2023-04-21T11:47:27.325Z,13.77
2023-04-21T11:49:56.751Z,13.27
2023-04-21T11:52:28.596Z,13.63
2023-04-21T11:54:58.190Z,13.85
2023-04-21T11:57:28.227Z,14.00
2023-04-21T11:59:56.480Z,13.48
2023-04-21T12:02:28.776Z,13.82
2023-04-21T12:05:04.876Z,13.65
2023-04-21T12:07:33.149Z,13.38
2023-04-21T12:10:01.270Z,13.18
2023-04-21T12:12:31.064Z,14.15
2023-04-21T12:14:59.278Z,14.52
2023-04-21T12:17:26.989Z,14.05
2023-04-21T12:19:54.700Z,14.50
2023-04-21T12:22:23.562Z,15.25
2023-04-21T12:24:51.373Z,14.45
2023-04-21T12:27:19.227Z,13.93
2023-04-21T12:29:48.280Z,14.57
2023-04-21T12:32:16.324Z,14.95
2023-04-21T12:34:44.374Z,13.95
2023-04-21T12:37:12.409Z,13.75
2023-04-21T12:39:40.119Z,13.73
2023-04-21T12:42:07.869Z,13.75
2023-04-21T12:44:35.513Z,13.70
2023-04-21T12:47:04.561Z,13.18
2023-04-21T12:49:32.390Z,13.70
2023-04-21T12:52:00.643Z,13.98
2023-04-21T12:54:28.293Z,14.30
2023-04-21T12:56:56.008Z,14.13
2023-04-21T12:59:23.672Z,14.50
2023-04-21T13:01:51.569Z,13.30
2023-04-21T13:04:21.441Z,13.82
2023-04-21T13:06:49.357Z,13.35
2023-04-21T13:09:17.675Z,14.60
2023-04-21T13:11:45.570Z,13.55
2023-04-21T13:14:13.663Z,14.38
2023-04-21T13:16:41.725Z,14.38
2023-04-21T13:19:09.408Z,15.00
2023-04-21T13:21:41.235Z,15.32
2023-04-21T13:24:11.269Z,14.73
2023-04-21T13:26:40.887Z,14.68
2023-04-21T13:29:09.032Z,14.13
2023-04-21T13:31:36.826Z,14.75
2023-04-21T13:34:04.732Z,16.50
2023-04-21T13:36:32.502Z,16.30
2023-04-21T13:39:04.088Z,15.82
2023-04-21T13:41:31.755Z,16.60
2023-04-21T13:43:59.460Z,16.60
2023-04-21T13:46:27.159Z,18.40
2023-04-21T13:48:54.843Z,18.08
2023-04-21T13:51:22.612Z,16.73
2023-04-21T13:53:50.414Z,16.27
2023-04-21T13:56:19.611Z,17.05
2023-04-21T13:58:47.279Z,16.38
2023-04-21T14:01:15.501Z,17.27
2023-04-21T14:03:44.081Z,17.10
2023-04-21T14:06:11.997Z,18.38
2023-04-21T14:08:39.685Z,17.25
2023-04-21T14:11:07.461Z,17.33
2023-04-21T14:13:42.123Z,17.02
2023-04-21T14:16:15.780Z,17.92
2023-04-21T14:18:45.172Z,15.65
2023-04-21T14:21:12.961Z,15.50
2023-04-21T14:23:40.646Z,15.10
2023-04-21T14:26:08.314Z,15.57
2023-04-21T14:28:37.647Z,15.65
2023-04-21T14:31:05.516Z,15.07
2023-04-21T14:33:33.843Z,14.27
2023-04-21T14:36:01.831Z,14.15
2023-04-21T14:38:30.745Z,15.13
2023-04-21T14:40:58.462Z,14.50
2023-04-21T14:43:26.177Z,13.88
2023-04-21T14:45:55.577Z,13.90
2023-04-21T14:48:23.464Z,14.40
2023-04-21T14:50:51.351Z,13.05
2023-04-21T14:53:19.040Z,14.60
2023-04-21T14:55:46.701Z,14.07
2023-04-21T14:58:14.410Z,14.13
2023-04-21T15:00:42.116Z,14.02
2023-04-21T15:03:11.591Z,14.43
2023-04-21T15:05:39.407Z,14.45
2023-04-21T15:08:07.097Z,13.20
2023-04-21T15:10:34.792Z,13.52
2023-04-21T15:13:02.468Z,13.00
2023-04-21T15:15:30.288Z,13.63
2023-04-21T15:17:57.997Z,13.70
2023-04-21T15:20:36.910Z,14.40
2023-04-21T15:23:11.972Z,12.32
2023-04-21T15:25:40.276Z,13.00
2023-04-21T15:28:08.621Z,12.18
2023-04-21T15:30:36.553Z,12.98
2023-04-21T15:33:04.379Z,12.32
2023-04-21T15:35:33.449Z,12.80
2023-04-21T15:38:01.200Z,12.50
2023-04-21T15:40:28.907Z,13.13
2023-04-21T15:42:56.678Z,13.57
2023-04-21T15:45:24.408Z,13.60
2023-04-21T15:47:52.167Z,13.73
2023-04-21T15:50:19.906Z,13.63
2023-04-21T15:52:48.975Z,12.60
2023-04-21T15:55:16.784Z,12.07
2023-04-21T15:57:44.720Z,12.07
2023-04-21T16:00:14.619Z,12.85
2023-04-21T16:02:42.650Z,13.80
2023-04-21T16:05:10.905Z,13.23
2023-04-21T16:07:38.787Z,12.23
2023-04-21T16:10:09.548Z,12.48
2023-04-21T16:12:37.307Z,12.68
2023-04-21T16:15:22.477Z,12.52
2023-04-21T16:17:51.246Z,13.77
2023-04-21T16:20:19.143Z,12.48
2023-04-21T16:22:46.891Z,12.25
2023-04-21T16:25:18.480Z,12.18
2023-04-21T16:27:46.420Z,12.35
2023-04-21T16:30:14.242Z,11.98
2023-04-21T16:32:41.997Z,12.18
2023-04-21T16:35:11.427Z,12.40
2023-04-21T16:37:40.574Z,12.55
2023-04-21T16:40:09.730Z,12.88
2023-04-21T16:42:38.875Z,12.00
2023-04-21T16:45:07.650Z,11.93
2023-04-21T16:47:41.215Z,11.07
2023-04-21T16:50:09.943Z,12.40
2023-04-21T16:52:43.866Z,12.65
2023-04-21T16:55:11.672Z,12.10
2023-04-21T16:57:41.575Z,12.88
2023-04-21T17:00:10.454Z,12.35
2023-04-21T17:02:38.273Z,12.80
2023-04-21T17:05:06.752Z,12.32
2023-04-21T17:07:35.120Z,12.82
2023-04-21T17:10:02.911Z,12.63
2023-04-21T17:12:30.653Z,13.07
2023-04-21T17:14:59.755Z,13.30
2023-04-21T17:17:27.461Z,12.93
2023-04-21T17:19:55.224Z,13.50
2023-04-21T17:22:22.856Z,12.93
2023-04-21T17:24:53.875Z,12.48
2023-04-21T17:27:22.024Z,12.88
2023-04-21T17:29:49.699Z,12.88
2023-04-21T17:32:18.940Z,12.38
2023-04-21T17:34:46.724Z,12.35
2023-04-21T17:37:14.490Z,12.80
2023-04-21T17:39:42.134Z,12.30
2023-04-21T17:42:09.808Z,13.80
2023-04-21T17:44:37.760Z,12.55
2023-04-21T17:47:08.323Z,12.35
2023-04-21T17:49:37.564Z,12.93
2023-04-21T17:52:05.938Z,13.52
2023-04-21T17:54:33.703Z,13.85
2023-04-21T17:57:01.614Z,13.25
2023-04-21T17:59:29.252Z,13.18
2023-04-21T18:01:57.874Z,12.40
2023-04-21T18:04:27.306Z,12.90
2023-04-21T18:06:56.476Z,12.90
2023-04-21T18:09:25.326Z,13.82
2023-04-21T18:11:52.953Z,13.18
2023-04-21T18:14:21.124Z,12.05
2023-04-21T18:16:48.860Z,14.18
2023-04-21T18:19:18.290Z,15.52
2023-04-21T18:21:46.020Z,13.70
2023-04-21T18:24:15.078Z,13.68
2023-04-21T18:26:42.860Z,12.48
2023-04-21T18:29:10.592Z,12.63
2023-04-21T18:31:38.389Z,11.50
2023-04-21T18:34:06.335Z,12.43
2023-04-21T18:36:34.879Z,10.77
2023-04-21T18:39:04.062Z,10.73
2023-04-21T18:41:33.478Z,10.50
2023-04-21T18:44:01.180Z,11.10
2023-04-21T18:46:28.869Z,10.88
2023-04-21T18:48:56.746Z,10.88
2023-04-21T18:51:25.284Z,10.45
2023-04-21T18:53:52.901Z,10.75
2023-04-21T18:56:20.630Z,10.40
2023-04-21T18:58:49.648Z,12.05
2023-04-21T19:01:18.563Z,10.52
2023-04-21T19:03:47.488Z,10.48
2023-04-21T19:06:15.623Z,10.05
2023-04-21T19:08:43.354Z,11.48
2023-04-21T19:11:14.390Z,11.77
2023-04-21T19:13:42.084Z,10.27
2023-04-21T19:16:12.698Z,10.25
2023-04-21T19:18:40.410Z,11.15
2023-04-21T19:21:12.692Z,10.48
2023-04-21T19:23:40.513Z,10.90
2023-04-21T19:26:08.672Z,9.90
2023-04-21T19:28:36.682Z,9.35
2023-04-21T19:31:04.470Z,9.45
2023-04-21T19:33:33.571Z,9.75
2023-04-21T19:36:01.457Z,9.95
2023-04-21T19:38:29.184Z,9.52
2023-04-21T19:40:58.269Z,9.70
2023-04-21T19:43:26.046Z,9.73
2023-04-21T19:45:53.812Z,10.13
2023-04-21T19:48:21.759Z,9.60
2023-04-21T19:50:50.830Z,9.50
2023-04-21T19:53:18.523Z,9.55
2023-04-21T19:55:46.458Z,9.27
2023-04-21T19:58:19.773Z,9.70
2023-04-21T20:00:56.375Z,9.20
2023-04-21T20:03:24.402Z,9.77
2023-04-21T20:05:53.757Z,9.27
2023-04-21T20:08:22.673Z,9.52
2023-04-21T20:10:50.456Z,9.32
2023-04-21T20:13:18.276Z,9.52
2023-04-21T20:15:46.276Z,8.93
2023-04-21T20:18:14.225Z,10.02
2023-04-21T20:20:42.111Z,9.27
2023-04-21T20:23:11.853Z,9.50
2023-04-21T20:25:39.755Z,10.23
2023-04-21T20:28:07.482Z,9.30
2023-04-21T20:30:35.446Z,10.02
2023-04-21T20:33:03.206Z,9.75
2023-04-21T20:35:33.451Z,10.10
2023-04-21T20:38:01.543Z,10.05
2023-04-21T20:40:31.021Z,10.98
2023-04-21T20:42:58.753Z,10.85
2023-04-21T20:45:27.868Z,10.25
2023-04-21T20:47:55.859Z,10.75
2023-04-21T20:50:24.346Z,10.25
2023-04-21T20:52:52.112Z,10.15
2023-04-21T20:55:20.406Z,10.10
2023-04-21T20:57:49.411Z,9.75
2023-04-21T21:00:17.428Z,9.63
2023-04-21T21:02:45.435Z,10.13
2023-04-21T21:05:13.326Z,9.73
2023-04-21T21:07:41.027Z,9.60
2023-04-21T21:10:11.281Z,9.60
2023-04-21T21:12:39.029Z,10.45
2023-04-21T21:15:08.956Z,10.00
2023-04-21T21:17:37.233Z,10.07
2023-04-21T21:20:06.009Z,10.07
2023-04-21T21:22:33.752Z,10.63
2023-04-21T21:25:01.390Z,10.00
2023-04-21T21:27:29.142Z,10.27
2023-04-21T21:29:56.796Z,9.20
2023-04-21T21:32:26.290Z,9.93
2023-04-21T21:34:54.053Z,10.65
2023-04-21T21:37:23.401Z,11.20
2023-04-21T21:39:51.387Z,10.98
2023-04-21T21:42:19.943Z,10.27
2023-04-21T21:44:47.648Z,9.75
2023-04-21T21:47:15.419Z,9.02
2023-04-21T21:49:44.481Z,9.02
2023-04-21T21:52:12.178Z,9.43
2023-04-21T21:54:39.843Z,10.15
2023-04-21T21:57:07.639Z,9.38
2023-04-21T21:59:35.539Z,9.70
2023-04-21T22:02:03.460Z,9.40
2023-04-21T22:04:31.439Z,8.93
2023-04-21T22:07:00.679Z,9.30
2023-04-21T22:09:28.383Z,9.45
2023-04-21T22:11:56.688Z,10.10
2023-04-21T22:14:24.407Z,9.32
2023-04-21T22:16:52.867Z,9.32
2023-04-21T22:19:21.029Z,9.18
2023-04-21T22:21:48.954Z,8.88
2023-04-21T22:24:18.160Z,8.95
2023-04-21T22:26:46.145Z,9.05
2023-04-21T22:29:14.117Z,9.05
2023-04-21T22:31:41.938Z,9.23
2023-04-21T22:34:10.351Z,9.70
2023-04-21T22:36:38.118Z,8.75
2023-04-21T22:39:06.197Z,9.20
2023-04-21T22:41:35.591Z,9.82
2023-04-21T22:44:03.290Z,9.10
2023-04-21T22:46:33.406Z,8.95
2023-04-21T22:49:03.891Z,9.00
2023-04-21T22:51:32.536Z,9.07
2023-04-21T22:54:00.853Z,9.45
2023-04-21T22:56:29.382Z,9.32
2023-04-21T22:58:58.498Z,9.57
2023-04-21T23:01:26.343Z,9.32
2023-04-21T23:03:54.233Z,9.00
2023-04-21T23:06:22.159Z,9.07
2023-04-21T23:08:49.777Z,8.98
2023-04-21T23:11:17.524Z,9.15
2023-04-21T23:13:45.386Z,8.98
2023-04-21T23:16:14.699Z,8.63
2023-04-21T23:18:42.430Z,9.32
2023-04-21T23:21:10.124Z,9.60
2023-04-21T23:23:37.756Z,9.07
2023-04-21T23:26:05.567Z,9.25
2023-04-21T23:28:33.202Z,9.30
2023-04-21T23:31:00.930Z,9.63
2023-04-21T23:33:29.962Z,12.77
2023-04-21T23:35:57.646Z,8.82
2023-04-21T23:38:25.281Z,9.13
2023-04-21T23:40:52.976Z,9.02
2023-04-21T23:43:20.618Z,8.90
2023-04-21T23:45:48.332Z,9.25
2023-04-21T23:48:15.954Z,9.38
2023-04-21T23:50:45.017Z,8.70
2023-04-21T23:53:12.657Z,9.40
2023-04-21T23:55:40.306Z,8.50
2023-04-21T23:58:07.930Z,9.48
